sensor_id;sensor_type;location;lat;lon;timestamp;temperature;humidity
46319;DHT22;32042;50.916;2.926;2022-10-16T00:00:34;13.30;99.90
46319;DHT22;32042;50.916;2.926;2022-10-16T00:03:00;13.30;99.90
46319;DHT22;32042;50.916;2.926;2022-10-16T00:05:26;13.30;99.90
46319;DHT22;32042;50.916;2.926;2022-10-16T00:07:52;13.30;99.90
46319;DHT22;32042;50.916;2.926;2022-10-16T00:10:18;13.30;99.90
46319;DHT22;32042;50.916;2.926;2022-10-16T00:12:43;13.30;99.90
46319;DHT22;32042;50.916;2.926;2022-10-16T00:15:09;13.30;99.90
46319;DHT22;32042;50.916;2.926;2022-10-16T00:17:35;13.30;99.90
46319;DHT22;32042;50.916;2.926;2022-10-16T00:20:01;13.30;99.90
46319;DHT22;32042;50.916;2.926;2022-10-16T00:22:26;13.40;99.90
46319;DHT22;32042;50.916;2.926;2022-10-16T00:24:52;13.40;99.90
46319;DHT22;32042;50.916;2.926;2022-10-16T00:27:18;13.40;99.90
46319;DHT22;32042;50.916;2.926;2022-10-16T00:29:43;13.40;99.90
46319;DHT22;32042;50.916;2.926;2022-10-16T00:32:09;13.40;99.90
46319;DHT22;32042;50.916;2.926;2022-10-16T00:34:35;13.40;99.90
46319;DHT22;32042;50.916;2.926;2022-10-16T00:37:00;13.40;99.90
46319;DHT22;32042;50.916;2.926;2022-10-16T00:39:26;13.30;99.90
46319;DHT22;32042;50.916;2.926;2022-10-16T00:41:52;13.40;99.90
46319;DHT22;32042;50.916;2.926;2022-10-16T00:44:55;13.30;99.90
46319;DHT22;32042;50.916;2.926;2022-10-16T00:47:32;13.30;99.90
46319;DHT22;32042;50.916;2.926;2022-10-16T00:52:41;13.30;99.90
46319;DHT22;32042;50.916;2.926;2022-10-16T00:55:07;13.30;99.90
46319;DHT22;32042;50.916;2.926;2022-10-16T00:57:34;13.30;99.90
46319;DHT22;32042;50.916;2.926;2022-10-16T01:00:00;13.20;99.90
46319;DHT22;32042;50.916;2.926;2022-10-16T01:02:26;13.20;99.90
46319;DHT22;32042;50.916;2.926;2022-10-16T01:04:53;13.20;99.90
46319;DHT22;32042;50.916;2.926;2022-10-16T01:13:15;13.20;99.90
46319;DHT22;32042;50.916;2.926;2022-10-16T01:16:24;13.20;99.90
46319;DHT22;32042;50.916;2.926;2022-10-16T01:18:44;13.10;99.90
46319;DHT22;32042;50.916;2.926;2022-10-16T01:21:16;13.10;99.90
46319;DHT22;32042;50.916;2.926;2022-10-16T01:29:33;13.10;99.90
46319;DHT22;32042;50.916;2.926;2022-10-16T01:32:05;13.10;99.90
46319;DHT22;32042;50.916;2.926;2022-10-16T01:34:38;13.10;99.90
46319;DHT22;32042;50.916;2.926;2022-10-16T01:37:14;13.10;99.90
46319;DHT22;32042;50.916;2.926;2022-10-16T01:39:42;13.10;99.90
46319;DHT22;32042;50.916;2.926;2022-10-16T01:42:19;13.00;99.90
46319;DHT22;32042;50.916;2.926;2022-10-16T01:44:46;13.00;99.90
46319;DHT22;32042;50.916;2.926;2022-10-16T01:47:13;13.00;99.90
46319;DHT22;32042;50.916;2.926;2022-10-16T01:49:41;13.00;99.90
46319;DHT22;32042;50.916;2.926;2022-10-16T01:52:12;13.00;99.90
46319;DHT22;32042;50.916;2.926;2022-10-16T01:54:43;13.00;99.90
46319;DHT22;32042;50.916;2.926;2022-10-16T01:57:13;12.90;99.90
46319;DHT22;32042;50.916;2.926;2022-10-16T01:59:46;12.90;99.90
46319;DHT22;32042;50.916;2.926;2022-10-16T02:02:13;12.90;99.90
46319;DHT22;32042;50.916;2.926;2022-10-16T02:04:51;12.90;99.90
46319;DHT22;32042;50.916;2.926;2022-10-16T02:07:18;12.90;99.90
46319;DHT22;32042;50.916;2.926;2022-10-16T02:09:44;12.90;99.90
46319;DHT22;32042;50.916;2.926;2022-10-16T02:12:33;12.80;99.90
46319;DHT22;32042;50.916;2.926;2022-10-16T02:15:00;12.90;99.90
46319;DHT22;32042;50.916;2.926;2022-10-16T02:17:26;12.90;99.90
46319;DHT22;32042;50.916;2.926;2022-10-16T02:19:54;12.80;99.90
46319;DHT22;32042;50.916;2.926;2022-10-16T02:24:59;12.80;99.90
46319;DHT22;32042;50.916;2.926;2022-10-16T02:30:54;12.80;99.90
46319;DHT22;32042;50.916;2.926;2022-10-16T02:33:23;12.80;99.90
46319;DHT22;32042;50.916;2.926;2022-10-16T02:35:52;12.80;99.90
46319;DHT22;32042;50.916;2.926;2022-10-16T02:38:21;12.80;99.90
46319;DHT22;32042;50.916;2.926;2022-10-16T02:40:48;12.70;99.90
46319;DHT22;32042;50.916;2.926;2022-10-16T02:43:16;12.80;99.90
46319;DHT22;32042;50.916;2.926;2022-10-16T02:45:43;12.80;99.90
46319;DHT22;32042;50.916;2.926;2022-10-16T02:48:09;12.70;99.90
46319;DHT22;32042;50.916;2.926;2022-10-16T02:50:36;12.70;99.90
46319;DHT22;32042;50.916;2.926;2022-10-16T02:53:02;12.60;99.90
46319;DHT22;32042;50.916;2.926;2022-10-16T02:55:28;12.60;99.90
46319;DHT22;32042;50.916;2.926;2022-10-16T02:57:54;12.60;99.90
46319;DHT22;32042;50.916;2.926;2022-10-16T03:00:20;12.60;99.90
46319;DHT22;32042;50.916;2.926;2022-10-16T03:02:46;12.60;99.90
46319;DHT22;32042;50.916;2.926;2022-10-16T03:05:12;12.60;99.90
46319;DHT22;32042;50.916;2.926;2022-10-16T03:07:38;12.60;99.90
46319;DHT22;32042;50.916;2.926;2022-10-16T03:10:04;12.60;99.90
46319;DHT22;32042;50.916;2.926;2022-10-16T03:12:30;12.60;99.90
46319;DHT22;32042;50.916;2.926;2022-10-16T03:14:56;12.50;99.90
46319;DHT22;32042;50.916;2.926;2022-10-16T03:17:23;12.60;99.90
46319;DHT22;32042;50.916;2.926;2022-10-16T03:19:49;12.60;99.90
46319;DHT22;32042;50.916;2.926;2022-10-16T03:22:15;12.60;99.90
46319;DHT22;32042;50.916;2.926;2022-10-16T03:24:40;12.50;99.90
46319;DHT22;32042;50.916;2.926;2022-10-16T03:27:08;12.50;99.90
46319;DHT22;32042;50.916;2.926;2022-10-16T03:29:34;12.50;99.90
46319;DHT22;32042;50.916;2.926;2022-10-16T03:32:00;12.50;99.90
46319;DHT22;32042;50.916;2.926;2022-10-16T03:34:26;12.40;99.90
46319;DHT22;32042;50.916;2.926;2022-10-16T03:36:52;12.40;99.90
46319;DHT22;32042;50.916;2.926;2022-10-16T03:39:18;12.40;99.90
46319;DHT22;32042;50.916;2.926;2022-10-16T03:41:44;12.40;99.90
46319;DHT22;32042;50.916;2.926;2022-10-16T03:44:12;12.40;99.90
46319;DHT22;32042;50.916;2.926;2022-10-16T03:46:37;12.40;99.90
46319;DHT22;32042;50.916;2.926;2022-10-16T03:49:03;12.40;99.90
46319;DHT22;32042;50.916;2.926;2022-10-16T03:51:29;12.30;99.90
46319;DHT22;32042;50.916;2.926;2022-10-16T03:53:54;12.30;99.90
46319;DHT22;32042;50.916;2.926;2022-10-16T03:56:20;12.30;99.90
46319;DHT22;32042;50.916;2.926;2022-10-16T03:58:46;12.30;99.90
46319;DHT22;32042;50.916;2.926;2022-10-16T04:01:11;12.30;99.90
46319;DHT22;32042;50.916;2.926;2022-10-16T04:03:37;12.30;99.90
46319;DHT22;32042;50.916;2.926;2022-10-16T04:06:03;12.30;99.90
46319;DHT22;32042;50.916;2.926;2022-10-16T04:08:28;12.30;99.90
46319;DHT22;32042;50.916;2.926;2022-10-16T04:10:54;12.30;99.90
46319;DHT22;32042;50.916;2.926;2022-10-16T04:13:20;12.30;99.90
46319;DHT22;32042;50.916;2.926;2022-10-16T04:15:45;12.30;99.90
46319;DHT22;32042;50.916;2.926;2022-10-16T04:18:11;12.30;99.90
46319;DHT22;32042;50.916;2.926;2022-10-16T04:20:37;12.30;99.90
46319;DHT22;32042;50.916;2.926;2022-10-16T04:23:04;12.30;99.90
46319;DHT22;32042;50.916;2.926;2022-10-16T04:25:30;12.30;99.90
46319;DHT22;32042;50.916;2.926;2022-10-16T04:27:56;12.30;99.90
46319;DHT22;32042;50.916;2.926;2022-10-16T04:30:22;12.30;99.90
46319;DHT22;32042;50.916;2.926;2022-10-16T04:32:49;12.30;99.90
46319;DHT22;32042;50.916;2.926;2022-10-16T04:35:16;12.40;99.90
46319;DHT22;32042;50.916;2.926;2022-10-16T04:37:42;12.40;99.90
46319;DHT22;32042;50.916;2.926;2022-10-16T04:40:08;12.40;99.90
46319;DHT22;32042;50.916;2.926;2022-10-16T04:42:34;12.40;99.90
46319;DHT22;32042;50.916;2.926;2022-10-16T04:44:59;12.40;99.90
46319;DHT22;32042;50.916;2.926;2022-10-16T04:47:25;12.50;99.90
46319;DHT22;32042;50.916;2.926;2022-10-16T04:49:50;12.50;99.90
46319;DHT22;32042;50.916;2.926;2022-10-16T04:52:16;12.50;99.90
46319;DHT22;32042;50.916;2.926;2022-10-16T04:54:42;12.50;99.90
46319;DHT22;32042;50.916;2.926;2022-10-16T04:57:11;12.50;99.90
46319;DHT22;32042;50.916;2.926;2022-10-16T04:59:36;12.50;99.90
46319;DHT22;32042;50.916;2.926;2022-10-16T05:02:02;12.50;99.90
46319;DHT22;32042;50.916;2.926;2022-10-16T05:04:28;12.50;99.90
46319;DHT22;32042;50.916;2.926;2022-10-16T05:06:53;12.50;99.90
46319;DHT22;32042;50.916;2.926;2022-10-16T05:09:19;12.50;99.90
46319;DHT22;32042;50.916;2.926;2022-10-16T05:11:45;12.40;99.90
46319;DHT22;32042;50.916;2.926;2022-10-16T05:14:11;12.40;99.90
46319;DHT22;32042;50.916;2.926;2022-10-16T05:16:37;12.40;99.90
46319;DHT22;32042;50.916;2.926;2022-10-16T05:19:02;12.40;99.90
46319;DHT22;32042;50.916;2.926;2022-10-16T05:21:28;12.40;99.90
46319;DHT22;32042;50.916;2.926;2022-10-16T05:23:54;12.40;99.90
46319;DHT22;32042;50.916;2.926;2022-10-16T05:26:20;12.40;99.90
46319;DHT22;32042;50.916;2.926;2022-10-16T05:28:46;12.40;99.90
46319;DHT22;32042;50.916;2.926;2022-10-16T05:31:12;12.40;99.90
46319;DHT22;32042;50.916;2.926;2022-10-16T05:33:37;12.40;99.90
46319;DHT22;32042;50.916;2.926;2022-10-16T05:36:08;12.40;99.90
46319;DHT22;32042;50.916;2.926;2022-10-16T05:38:35;12.40;99.90
46319;DHT22;32042;50.916;2.926;2022-10-16T05:41:01;12.40;99.90
46319;DHT22;32042;50.916;2.926;2022-10-16T05:43:28;12.30;99.90
46319;DHT22;32042;50.916;2.926;2022-10-16T05:46:03;12.30;99.90
46319;DHT22;32042;50.916;2.926;2022-10-16T05:48:29;12.40;99.90
46319;DHT22;32042;50.916;2.926;2022-10-16T05:51:04;12.30;99.90
46319;DHT22;32042;50.916;2.926;2022-10-16T05:53:34;12.30;99.90
46319;DHT22;32042;50.916;2.926;2022-10-16T05:56:00;12.40;99.90
46319;DHT22;32042;50.916;2.926;2022-10-16T05:58:32;12.30;99.90
46319;DHT22;32042;50.916;2.926;2022-10-16T06:01:07;12.30;99.90
46319;DHT22;32042;50.916;2.926;2022-10-16T06:03:33;12.40;99.90
46319;DHT22;32042;50.916;2.926;2022-10-16T06:05:59;12.40;99.90
46319;DHT22;32042;50.916;2.926;2022-10-16T06:08:32;12.40;99.90
46319;DHT22;32042;50.916;2.926;2022-10-16T06:11:05;12.40;99.90
46319;DHT22;32042;50.916;2.926;2022-10-16T06:13:31;12.40;99.90
46319;DHT22;32042;50.916;2.926;2022-10-16T06:15:58;12.40;99.90
46319;DHT22;32042;50.916;2.926;2022-10-16T06:18:25;12.40;99.90
46319;DHT22;32042;50.916;2.926;2022-10-16T06:20:51;12.40;99.90
46319;DHT22;32042;50.916;2.926;2022-10-16T06:23:16;12.40;99.90
46319;DHT22;32042;50.916;2.926;2022-10-16T06:25:42;12.40;99.90
46319;DHT22;32042;50.916;2.926;2022-10-16T06:28:08;12.40;99.90
46319;DHT22;32042;50.916;2.926;2022-10-16T06:30:33;12.40;99.90
46319;DHT22;32042;50.916;2.926;2022-10-16T06:32:59;12.30;99.90
46319;DHT22;32042;50.916;2.926;2022-10-16T06:35:25;12.30;99.90
46319;DHT22;32042;50.916;2.926;2022-10-16T06:37:52;12.30;99.90
46319;DHT22;32042;50.916;2.926;2022-10-16T06:40:18;12.30;99.90
46319;DHT22;32042;50.916;2.926;2022-10-16T06:42:44;12.30;99.90
46319;DHT22;32042;50.916;2.926;2022-10-16T06:45:10;12.30;99.90
46319;DHT22;32042;50.916;2.926;2022-10-16T06:47:36;12.30;99.90
46319;DHT22;32042;50.916;2.926;2022-10-16T06:50:02;12.30;99.90
46319;DHT22;32042;50.916;2.926;2022-10-16T06:52:29;12.30;99.90
46319;DHT22;32042;50.916;2.926;2022-10-16T06:54:54;12.30;99.90
46319;DHT22;32042;50.916;2.926;2022-10-16T06:57:20;12.40;99.90
46319;DHT22;32042;50.916;2.926;2022-10-16T06:59:46;12.40;99.90
46319;DHT22;32042;50.916;2.926;2022-10-16T07:02:11;12.40;99.90
46319;DHT22;32042;50.916;2.926;2022-10-16T07:04:37;12.40;99.90
46319;DHT22;32042;50.916;2.926;2022-10-16T07:07:03;12.40;99.90
46319;DHT22;32042;50.916;2.926;2022-10-16T07:09:28;12.50;99.90
46319;DHT22;32042;50.916;2.926;2022-10-16T07:11:54;12.50;99.90
46319;DHT22;32042;50.916;2.926;2022-10-16T07:14:20;12.60;99.90
46319;DHT22;32042;50.916;2.926;2022-10-16T07:16:47;12.60;99.90
46319;DHT22;32042;50.916;2.926;2022-10-16T07:19:14;12.70;99.90
46319;DHT22;32042;50.916;2.926;2022-10-16T07:21:41;12.70;99.90
46319;DHT22;32042;50.916;2.926;2022-10-16T07:24:12;12.70;99.90
46319;DHT22;32042;50.916;2.926;2022-10-16T07:26:38;12.80;99.90
46319;DHT22;32042;50.916;2.926;2022-10-16T07:29:12;12.80;99.90
46319;DHT22;32042;50.916;2.926;2022-10-16T07:31:39;12.90;99.90
46319;DHT22;32042;50.916;2.926;2022-10-16T07:34:05;13.00;99.90
46319;DHT22;32042;50.916;2.926;2022-10-16T07:36:31;13.00;99.90
46319;DHT22;32042;50.916;2.926;2022-10-16T07:38:56;13.10;99.90
46319;DHT22;32042;50.916;2.926;2022-10-16T07:41:22;13.20;99.90
46319;DHT22;32042;50.916;2.926;2022-10-16T07:43:50;13.20;99.90
46319;DHT22;32042;50.916;2.926;2022-10-16T07:46:17;13.30;99.90
46319;DHT22;32042;50.916;2.926;2022-10-16T07:48:43;13.30;99.90
46319;DHT22;32042;50.916;2.926;2022-10-16T07:51:13;13.40;99.90
46319;DHT22;32042;50.916;2.926;2022-10-16T07:53:39;13.40;99.90
46319;DHT22;32042;50.916;2.926;2022-10-16T07:56:06;13.50;99.90
46319;DHT22;32042;50.916;2.926;2022-10-16T07:58:34;13.50;99.90
46319;DHT22;32042;50.916;2.926;2022-10-16T08:01:07;13.60;99.90
46319;DHT22;32042;50.916;2.926;2022-10-16T08:03:32;13.60;99.90
46319;DHT22;32042;50.916;2.926;2022-10-16T08:05:59;13.70;99.90
46319;DHT22;32042;50.916;2.926;2022-10-16T08:08:25;13.70;99.90
46319;DHT22;32042;50.916;2.926;2022-10-16T08:10:51;13.80;99.90
46319;DHT22;32042;50.916;2.926;2022-10-16T08:13:17;13.80;99.90
46319;DHT22;32042;50.916;2.926;2022-10-16T08:15:43;14.00;99.90
46319;DHT22;32042;50.916;2.926;2022-10-16T08:18:11;14.10;99.90
46319;DHT22;32042;50.916;2.926;2022-10-16T08:20:37;14.10;99.90
46319;DHT22;32042;50.916;2.926;2022-10-16T08:23:03;14.10;99.90
46319;DHT22;32042;50.916;2.926;2022-10-16T08:25:29;14.10;99.90
46319;DHT22;32042;50.916;2.926;2022-10-16T08:27:54;14.20;99.90
46319;DHT22;32042;50.916;2.926;2022-10-16T08:30:21;14.30;99.90
46319;DHT22;32042;50.916;2.926;2022-10-16T08:32:47;14.40;99.90
46319;DHT22;32042;50.916;2.926;2022-10-16T08:35:14;14.50;99.90
46319;DHT22;32042;50.916;2.926;2022-10-16T08:37:40;14.60;99.90
46319;DHT22;32042;50.916;2.926;2022-10-16T08:40:16;14.60;99.90
46319;DHT22;32042;50.916;2.926;2022-10-16T08:42:48;14.60;99.90
46319;DHT22;32042;50.916;2.926;2022-10-16T08:50:50;14.90;99.90
46319;DHT22;32042;50.916;2.926;2022-10-16T08:53:48;14.90;99.90
46319;DHT22;32042;50.916;2.926;2022-10-16T08:56:14;15.00;99.90
46319;DHT22;32042;50.916;2.926;2022-10-16T08:58:40;15.10;99.90
46319;DHT22;32042;50.916;2.926;2022-10-16T09:01:13;15.30;99.90
46319;DHT22;32042;50.916;2.926;2022-10-16T09:09:24;15.50;99.90
46319;DHT22;32042;50.916;2.926;2022-10-16T09:12:02;15.40;99.90
46319;DHT22;32042;50.916;2.926;2022-10-16T09:17:30;15.60;99.90
46319;DHT22;32042;50.916;2.926;2022-10-16T09:20:26;15.60;99.90
46319;DHT22;32042;50.916;2.926;2022-10-16T09:23:27;15.50;99.90
46319;DHT22;32042;50.916;2.926;2022-10-16T09:25:55;15.50;99.90
46319;DHT22;32042;50.916;2.926;2022-10-16T09:28:21;15.60;99.90
46319;DHT22;32042;50.916;2.926;2022-10-16T09:30:47;15.70;99.90
46319;DHT22;32042;50.916;2.926;2022-10-16T09:33:19;15.80;99.90
46319;DHT22;32042;50.916;2.926;2022-10-16T09:35:50;16.00;99.90
46319;DHT22;32042;50.916;2.926;2022-10-16T09:38:34;16.00;99.90
46319;DHT22;32042;50.916;2.926;2022-10-16T09:41:15;16.00;99.90
46319;DHT22;32042;50.916;2.926;2022-10-16T09:43:49;16.00;99.90
46319;DHT22;32042;50.916;2.926;2022-10-16T09:46:35;16.10;99.90
46319;DHT22;32042;50.916;2.926;2022-10-16T09:49:04;16.10;99.90
46319;DHT22;32042;50.916;2.926;2022-10-16T09:51:35;16.10;99.90
46319;DHT22;32042;50.916;2.926;2022-10-16T09:56:34;16.20;99.90
46319;DHT22;32042;50.916;2.926;2022-10-16T09:59:13;16.20;99.90
46319;DHT22;32042;50.916;2.926;2022-10-16T10:01:42;16.30;99.90
46319;DHT22;32042;50.916;2.926;2022-10-16T10:04:08;16.30;99.90
46319;DHT22;32042;50.916;2.926;2022-10-16T10:06:44;16.40;99.90
46319;DHT22;32042;50.916;2.926;2022-10-16T10:14:22;16.60;99.90
46319;DHT22;32042;50.916;2.926;2022-10-16T10:16:50;16.70;99.90
46319;DHT22;32042;50.916;2.926;2022-10-16T10:19:22;16.80;99.90
46319;DHT22;32042;50.916;2.926;2022-10-16T10:21:50;16.90;99.90
46319;DHT22;32042;50.916;2.926;2022-10-16T10:24:18;16.90;99.90
46319;DHT22;32042;50.916;2.926;2022-10-16T10:43:11;17.30;99.90
46319;DHT22;32042;50.916;2.926;2022-10-16T10:45:43;17.40;99.90
46319;DHT22;32042;50.916;2.926;2022-10-16T10:50:57;17.70;99.90
46319;DHT22;32042;50.916;2.926;2022-10-16T10:53:50;17.60;99.90
46319;DHT22;32042;50.916;2.926;2022-10-16T10:57:09;17.80;99.90
46319;DHT22;32042;50.916;2.926;2022-10-16T10:59:36;17.90;99.90
46319;DHT22;32042;50.916;2.926;2022-10-16T11:10:50;18.30;99.90
46319;DHT22;32042;50.916;2.926;2022-10-16T11:13:35;18.30;99.90
46319;DHT22;32042;50.916;2.926;2022-10-16T11:16:30;18.40;99.90
46319;DHT22;32042;50.916;2.926;2022-10-16T11:21:54;18.50;99.90
46319;DHT22;32042;50.916;2.926;2022-10-16T11:27:13;18.60;99.90
46319;DHT22;32042;50.916;2.926;2022-10-16T11:29:47;18.50;99.90
46319;DHT22;32042;50.916;2.926;2022-10-16T11:32:27;18.40;99.90
46319;DHT22;32042;50.916;2.926;2022-10-16T11:35:02;18.40;99.90
46319;DHT22;32042;50.916;2.926;2022-10-16T11:37:38;18.20;99.90
46319;DHT22;32042;50.916;2.926;2022-10-16T11:40:27;18.10;99.90
46319;DHT22;32042;50.916;2.926;2022-10-16T11:43:21;18.20;99.90
46319;DHT22;32042;50.916;2.926;2022-10-16T11:45:53;18.30;99.90
46319;DHT22;32042;50.916;2.926;2022-10-16T11:49:20;18.30;99.90
46319;DHT22;32042;50.916;2.926;2022-10-16T11:51:56;18.30;99.90
46319;DHT22;32042;50.916;2.926;2022-10-16T11:54:28;18.40;99.90
46319;DHT22;32042;50.916;2.926;2022-10-16T11:57:01;18.40;99.90
46319;DHT22;32042;50.916;2.926;2022-10-16T11:59:55;18.40;99.90
46319;DHT22;32042;50.916;2.926;2022-10-16T12:05:33;18.30;99.90
46319;DHT22;32042;50.916;2.926;2022-10-16T12:08:16;18.30;99.90
46319;DHT22;32042;50.916;2.926;2022-10-16T12:10:44;18.10;99.90
46319;DHT22;32042;50.916;2.926;2022-10-16T12:13:33;18.10;99.90
46319;DHT22;32042;50.916;2.926;2022-10-16T12:18:39;18.30;99.90
46319;DHT22;32042;50.916;2.926;2022-10-16T12:21:05;18.50;99.90
46319;DHT22;32042;50.916;2.926;2022-10-16T12:23:53;18.60;99.90
46319;DHT22;32042;50.916;2.926;2022-10-16T12:26:31;18.80;99.90
46319;DHT22;32042;50.916;2.926;2022-10-16T12:31:44;19.10;99.90
46319;DHT22;32042;50.916;2.926;2022-10-16T12:34:41;19.20;99.90
46319;DHT22;32042;50.916;2.926;2022-10-16T12:37:18;19.30;99.90
46319;DHT22;32042;50.916;2.926;2022-10-16T12:39:45;19.50;99.90
46319;DHT22;32042;50.916;2.926;2022-10-16T12:44:53;19.70;99.90
46319;DHT22;32042;50.916;2.926;2022-10-16T12:47:47;19.80;99.90
46319;DHT22;32042;50.916;2.926;2022-10-16T12:52:49;20.00;99.90
46319;DHT22;32042;50.916;2.926;2022-10-16T12:55:20;20.00;99.90
46319;DHT22;32042;50.916;2.926;2022-10-16T13:00:20;19.80;99.90
46319;DHT22;32042;50.916;2.926;2022-10-16T13:08:26;19.80;99.90
46319;DHT22;32042;50.916;2.926;2022-10-16T13:22:20;19.30;99.90
46319;DHT22;32042;50.916;2.926;2022-10-16T13:24:57;19.30;99.90
46319;DHT22;32042;50.916;2.926;2022-10-16T13:32:52;19.10;99.90
46319;DHT22;32042;50.916;2.926;2022-10-16T13:35:29;19.10;99.90
46319;DHT22;32042;50.916;2.926;2022-10-16T13:38:04;19.00;99.90
46319;DHT22;32042;50.916;2.926;2022-10-16T13:40:30;18.90;99.90
46319;DHT22;32042;50.916;2.926;2022-10-16T13:42:56;18.80;99.90
46319;DHT22;32042;50.916;2.926;2022-10-16T13:45:23;18.80;99.90
46319;DHT22;32042;50.916;2.926;2022-10-16T13:48:01;18.80;99.90
46319;DHT22;32042;50.916;2.926;2022-10-16T13:50:27;18.80;99.90
46319;DHT22;32042;50.916;2.926;2022-10-16T13:53:13;18.70;99.90
46319;DHT22;32042;50.916;2.926;2022-10-16T13:55:38;18.60;99.90
46319;DHT22;32042;50.916;2.926;2022-10-16T13:58:11;18.60;99.90
46319;DHT22;32042;50.916;2.926;2022-10-16T14:00:38;18.60;99.90
46319;DHT22;32042;50.916;2.926;2022-10-16T14:03:13;18.50;99.90
46319;DHT22;32042;50.916;2.926;2022-10-16T14:05:49;18.40;99.90
46319;DHT22;32042;50.916;2.926;2022-10-16T14:08:16;18.40;99.90
46319;DHT22;32042;50.916;2.926;2022-10-16T14:10:42;18.30;99.90
46319;DHT22;32042;50.916;2.926;2022-10-16T14:13:16;18.30;99.90
46319;DHT22;32042;50.916;2.926;2022-10-16T14:15:47;18.20;99.90
46319;DHT22;32042;50.916;2.926;2022-10-16T14:18:22;18.20;99.90
46319;DHT22;32042;50.916;2.926;2022-10-16T14:20:49;18.20;99.90
46319;DHT22;32042;50.916;2.926;2022-10-16T14:23:30;18.10;99.90
46319;DHT22;32042;50.916;2.926;2022-10-16T14:28:40;18.10;99.90
46319;DHT22;32042;50.916;2.926;2022-10-16T14:31:29;18.00;99.90
46319;DHT22;32042;50.916;2.926;2022-10-16T14:33:55;18.00;99.90
46319;DHT22;32042;50.916;2.926;2022-10-16T14:36:22;18.00;99.90
46319;DHT22;32042;50.916;2.926;2022-10-16T14:39:04;18.00;99.90
46319;DHT22;32042;50.916;2.926;2022-10-16T14:41:44;17.90;99.90
46319;DHT22;32042;50.916;2.926;2022-10-16T14:44:11;17.90;99.90
46319;DHT22;32042;50.916;2.926;2022-10-16T14:46:39;17.90;99.90
46319;DHT22;32042;50.916;2.926;2022-10-16T14:51:38;17.90;99.90
46319;DHT22;32042;50.916;2.926;2022-10-16T14:54:08;17.90;99.90
46319;DHT22;32042;50.916;2.926;2022-10-16T14:56:53;17.80;99.90
46319;DHT22;32042;50.916;2.926;2022-10-16T14:59:27;17.80;99.90
46319;DHT22;32042;50.916;2.926;2022-10-16T15:01:54;17.70;99.90
46319;DHT22;32042;50.916;2.926;2022-10-16T15:04:20;17.70;99.90
46319;DHT22;32042;50.916;2.926;2022-10-16T15:06:45;17.70;99.90
46319;DHT22;32042;50.916;2.926;2022-10-16T15:09:11;17.70;99.90
46319;DHT22;32042;50.916;2.926;2022-10-16T15:11:37;17.70;99.90
46319;DHT22;32042;50.916;2.926;2022-10-16T15:14:03;17.60;99.90
46319;DHT22;32042;50.916;2.926;2022-10-16T15:16:30;17.60;99.90
46319;DHT22;32042;50.916;2.926;2022-10-16T15:18:56;17.60;99.90
46319;DHT22;32042;50.916;2.926;2022-10-16T15:21:27;17.60;99.90
46319;DHT22;32042;50.916;2.926;2022-10-16T15:23:53;17.50;99.90
46319;DHT22;32042;50.916;2.926;2022-10-16T15:26:18;17.50;99.90
46319;DHT22;32042;50.916;2.926;2022-10-16T15:28:44;17.50;99.90
46319;DHT22;32042;50.916;2.926;2022-10-16T15:31:10;17.40;99.90
46319;DHT22;32042;50.916;2.926;2022-10-16T15:33:35;17.40;99.90
46319;DHT22;32042;50.916;2.926;2022-10-16T15:36:02;17.40;99.90
46319;DHT22;32042;50.916;2.926;2022-10-16T15:38:28;17.40;99.90
46319;DHT22;32042;50.916;2.926;2022-10-16T15:40:55;17.40;99.90
46319;DHT22;32042;50.916;2.926;2022-10-16T15:43:20;17.30;99.90
46319;DHT22;32042;50.916;2.926;2022-10-16T15:46:02;17.30;99.90
46319;DHT22;32042;50.916;2.926;2022-10-16T15:48:29;17.20;99.90
46319;DHT22;32042;50.916;2.926;2022-10-16T15:50:55;17.10;99.90
46319;DHT22;32042;50.916;2.926;2022-10-16T15:53:21;17.10;99.90
46319;DHT22;32042;50.916;2.926;2022-10-16T15:55:47;17.00;99.90
46319;DHT22;32042;50.916;2.926;2022-10-16T15:58:13;17.00;99.90
46319;DHT22;32042;50.916;2.926;2022-10-16T16:00:38;16.90;99.90
46319;DHT22;32042;50.916;2.926;2022-10-16T16:03:04;16.90;99.90
46319;DHT22;32042;50.916;2.926;2022-10-16T16:05:30;16.80;99.90
46319;DHT22;32042;50.916;2.926;2022-10-16T16:07:56;16.80;99.90
46319;DHT22;32042;50.916;2.926;2022-10-16T16:10:22;16.80;99.90
46319;DHT22;32042;50.916;2.926;2022-10-16T16:12:49;16.80;99.90
46319;DHT22;32042;50.916;2.926;2022-10-16T16:15:18;16.80;99.90
46319;DHT22;32042;50.916;2.926;2022-10-16T16:17:44;16.70;99.90
46319;DHT22;32042;50.916;2.926;2022-10-16T16:20:10;16.70;99.90
46319;DHT22;32042;50.916;2.926;2022-10-16T16:22:36;16.70;99.90
46319;DHT22;32042;50.916;2.926;2022-10-16T16:25:02;16.70;99.90
46319;DHT22;32042;50.916;2.926;2022-10-16T16:27:27;16.60;99.90
46319;DHT22;32042;50.916;2.926;2022-10-16T16:29:55;16.60;99.90
46319;DHT22;32042;50.916;2.926;2022-10-16T16:32:21;16.60;99.90
46319;DHT22;32042;50.916;2.926;2022-10-16T16:34:47;16.60;99.90
46319;DHT22;32042;50.916;2.926;2022-10-16T16:37:13;16.50;99.90
46319;DHT22;32042;50.916;2.926;2022-10-16T16:39:39;16.50;99.90
46319;DHT22;32042;50.916;2.926;2022-10-16T16:42:04;16.40;99.90
46319;DHT22;32042;50.916;2.926;2022-10-16T16:44:33;16.40;99.90
46319;DHT22;32042;50.916;2.926;2022-10-16T16:46:58;16.40;99.90
46319;DHT22;32042;50.916;2.926;2022-10-16T16:49:24;16.40;99.90
46319;DHT22;32042;50.916;2.926;2022-10-16T16:51:50;16.30;99.90
46319;DHT22;32042;50.916;2.926;2022-10-16T16:54:15;16.30;99.90
46319;DHT22;32042;50.916;2.926;2022-10-16T16:56:41;16.20;99.90
46319;DHT22;32042;50.916;2.926;2022-10-16T16:59:13;16.20;99.90
46319;DHT22;32042;50.916;2.926;2022-10-16T17:01:39;16.20;99.90
46319;DHT22;32042;50.916;2.926;2022-10-16T17:04:05;16.20;99.90
46319;DHT22;32042;50.916;2.926;2022-10-16T17:06:31;16.10;99.90
46319;DHT22;32042;50.916;2.926;2022-10-16T17:08:57;16.10;99.90
46319;DHT22;32042;50.916;2.926;2022-10-16T17:11:25;16.10;99.90
46319;DHT22;32042;50.916;2.926;2022-10-16T17:13:53;16.10;99.90
46319;DHT22;32042;50.916;2.926;2022-10-16T17:16:21;16.10;99.90
46319;DHT22;32042;50.916;2.926;2022-10-16T17:18:46;16.00;99.90
46319;DHT22;32042;50.916;2.926;2022-10-16T17:21:12;16.00;99.90
46319;DHT22;32042;50.916;2.926;2022-10-16T17:23:38;16.00;99.90
46319;DHT22;32042;50.916;2.926;2022-10-16T17:26:12;16.00;99.90
46319;DHT22;32042;50.916;2.926;2022-10-16T17:28:38;15.90;99.90
46319;DHT22;32042;50.916;2.926;2022-10-16T17:31:13;16.00;99.90
46319;DHT22;32042;50.916;2.926;2022-10-16T17:33:39;15.90;99.90
46319;DHT22;32042;50.916;2.926;2022-10-16T17:36:06;15.90;99.90
46319;DHT22;32042;50.916;2.926;2022-10-16T17:38:32;15.90;99.90
46319;DHT22;32042;50.916;2.926;2022-10-16T17:40:57;15.80;99.90
46319;DHT22;32042;50.916;2.926;2022-10-16T17:43:23;15.90;99.90